Time;durP1;ratioP1;P1;durP2;ratioP2;P2;SDS_P1;SDS_P2;PMS_P1;PMS_P2;Temp;Humidity;BMP_temperature;BMP_pressure;BME280_temperature;BME280_humidity;BME280_pressure;Samples;Min_cycle;Max_cycle;Signal;HPM_P1;HPM_P2
2021/01/19 00:02:17;;;;;;;;;;;;;;;;;;5047346;28;20302;-68
2021/01/19 00:04:43;;;;;;;;;;;;;;;;;;5052548;28;19925;-68
2021/01/19 00:07:10;;;;;;;;;;;;;;;;;;5051954;28;20296;-68
2021/01/19 00:09:36;;;;;;;;;;;;;;;;;;5052172;28;19932;-68
2021/01/19 00:12:03;;;;;;;;;;;;;;;;;;5051923;28;20295;-68
2021/01/19 00:14:29;;;;;;;;;;;;;;;;;;5049020;28;20225;-68
2021/01/19 00:16:56;;;;;;;;;;;;;;;;;;5052131;28;20012;-67
2021/01/19 00:19:22;;;;;;;;;;;;;;;;;;5039309;28;19939;-68
2021/01/19 00:21:49;;;;;;;;;;;;;;;;;;5049768;28;20015;-68
2021/01/19 00:24:15;;;;;;;;;;;;;;;;;;5047886;28;20349;-67
2021/01/19 00:26:42;;;;;;;;;;;;;;;;;;5043272;28;19941;-68
2021/01/19 00:29:08;;;;;;;;;;;;;;;;;;5046248;28;19929;-68
2021/01/19 00:31:35;;;;;;;;;;;;;;;;;;5050781;28;20412;-68
2021/01/19 00:34:01;;;;;;;;;;;;;;;;;;5052213;28;19925;-67
2021/01/19 00:36:28;;;;;;;;;;;;;;;;;;5054185;28;19949;-67
2021/01/19 00:38:54;;;;;;;;;;;;;;;;;;5040915;28;19925;-67
2021/01/19 00:41:20;;;;;;;;;;;;;;;;;;5048279;28;19943;-67
2021/01/19 00:43:47;;;;;;;;;;;;;;;;;;5037024;28;19925;-68
2021/01/19 00:46:13;;;;;;;;;;;;;;;;;;5052389;28;20035;-67
2021/01/19 00:48:40;;;;;;;;;;;;;;;;;;5045385;28;19940;-67
2021/01/19 00:51:06;;;;;;;;;;;;;;;;;;5041542;28;19931;-68
2021/01/19 00:53:33;;;;;;;;;;;;;;;;;;5045093;28;19931;-67
2021/01/19 00:55:59;;;;;;;;;;;;;;;;;;5047981;28;20332;-67
2021/01/19 00:58:26;;;;;;;;;;;;;;;;;;5054225;28;19924;-67
2021/01/19 01:00:52;;;;;;;;;;;;;;;;;;5044076;28;19924;-67
2021/01/19 01:03:19;;;;;;;;;;;;;;;;;;5038907;28;19929;-67
2021/01/19 01:05:45;;;;;;;;;;;;;;;;;;5049250;28;19978;-67
2021/01/19 01:08:12;;;;;;;;;;;;;;;;;;5053772;28;19925;-67
2021/01/19 01:10:38;;;;;;;;;;;;;;;;;;5049637;28;20071;-68
2021/01/19 01:13:05;;;;;;;;;;;;;;;;;;5044492;28;19925;-67
2021/01/19 01:15:31;;;;;;;;;;;;;;;;;;5043454;28;19925;-68
2021/01/19 01:17:58;;;;;;;;;;;;;;;;;;5052145;28;19925;-67
2021/01/19 01:20:24;;;;;;;;;;;;;;;;;;5052813;28;20250;-67
2021/01/19 01:22:51;;;;;;;;;;;;;;;;;;5047654;28;19925;-67
2021/01/19 01:25:17;;;;;;;;;;;;;;;;;;5046912;28;20350;-68
2021/01/19 01:27:44;;;;;;;;;;;;;;;;;;5051414;28;19932;-67
2021/01/19 01:30:10;;;;;;;;;;;;;;;;;;5042941;28;20230;-67
2021/01/19 01:32:37;;;;;;;;;;;;;;;;;;5041299;28;20019;-67
2021/01/19 01:35:03;;;;;;;;;;;;;;;;;;5044613;28;19932;-68
2021/01/19 01:37:30;;;;;;;;;;;;;;;;;;5040137;28;19925;-67
2021/01/19 01:39:56;;;;;;;;;;;;;;;;;;5050146;28;19932;-67
2021/01/19 01:42:24;;;;;;;;;;;;;;;;;;5043604;28;19925;-66
2021/01/19 01:44:50;;;;;;;;;;;;;;;;;;5043607;28;20308;-68
2021/01/19 01:47:17;;;;;;;;;;;;;;;;;;5048586;28;19925;-66
2021/01/19 01:49:43;;;;;;;;;;;;;;;;;;5050188;28;19931;-66
2021/01/19 01:52:10;;;;;;;;;;;;;;;;;;5044686;28;19940;-67
2021/01/19 01:54:36;;;;;;;;;;;;;;;;;;5050923;28;20027;-67
2021/01/19 01:57:03;;;;;;;;;;;;;;;;;;5040077;28;20297;-67
2021/01/19 01:59:30;;;;;;;;;;;;;;;;;;5050292;28;19933;-66
2021/01/19 02:01:57;;;;;;;;;;;;;;;;;;5048130;28;19956;-66
2021/01/19 02:04:23;;;;;;;;;;;;;;;;;;5053072;28;19932;-66
2021/01/19 02:06:50;;;;;;;;;;;;;;;;;;5052509;28;20351;-67
2021/01/19 02:09:16;;;;;;;;;;;;;;;;;;5046364;28;19926;-67
2021/01/19 02:11:43;;;;;;;;;;;;;;;;;;5049771;28;19929;-67
2021/01/19 02:14:09;;;;;;;;;;;;;;;;;;5044172;28;20062;-67
2021/01/19 02:16:36;;;;;;;;;;;;;;;;;;5059978;28;19946;-67
2021/01/19 02:19:02;;;;;;;;;;;;;;;;;;5053212;28;19924;-67
2021/01/19 02:21:29;;;;;;;;;;;;;;;;;;5049017;28;19954;-67
2021/01/19 02:23:55;;;;;;;;;;;;;;;;;;5050082;28;20288;-67
2021/01/19 02:26:22;;;;;;;;;;;;;;;;;;5043902;28;19925;-67
2021/01/19 02:28:48;;;;;;;;;;;;;;;;;;5040791;28;20111;-67
2021/01/19 02:31:15;;;;;;;;;;;;;;;;;;5041777;28;20063;-67
2021/01/19 02:33:41;;;;;;;;;;;;;;;;;;5041578;28;19925;-67
2021/01/19 02:36:08;;;;;;;;;;;;;;;;;;5044579;28;19925;-67
2021/01/19 02:38:34;;;;;;;;;;;;;;;;;;5047395;28;19944;-67
2021/01/19 02:41:01;;;;;;;;;;;;;;;;;;5040385;28;19935;-67
2021/01/19 02:43:27;;;;;;;;;;;;;;;;;;5050104;28;20028;-67
2021/01/19 02:45:54;;;;;;;;;;;;;;;;;;5044841;28;19953;-67
2021/01/19 02:48:20;;;;;;;;;;;;;;;;;;5035405;28;20411;-68
2021/01/19 02:50:47;;;;;;;;;;;;;;;;;;5044607;28;19925;-67
2021/01/19 02:53:13;;;;;;;;;;;;;;;;;;5045562;28;19932;-67
2021/01/19 02:55:40;;;;;;;;;;;;;;;;;;5047179;28;19925;-67
2021/01/19 02:58:06;;;;;;;;;;;;;;;;;;5046562;28;19924;-67
2021/01/19 03:00:33;;;;;;;;;;;;;;;;;;5052761;28;19925;-67
2021/01/19 03:02:59;;;;;;;;;;;;;;;;;;5047794;28;19958;-67
2021/01/19 03:05:26;;;;;;;;;;;;;;;;;;5043683;28;19925;-67
2021/01/19 03:07:52;;;;;;;;;;;;;;;;;;5045668;28;19925;-67
2021/01/19 03:10:19;;;;;;;;;;;;;;;;;;5045938;28;19929;-67
2021/01/19 03:12:45;;;;;;;;;;;;;;;;;;5051718;28;19932;-67
2021/01/19 03:15:11;;;;;;;;;;;;;;;;;;5051577;28;20020;-67
2021/01/19 03:17:40;;;;;;;;;;;;;;;;;;5040337;28;20020;-67
2021/01/19 03:20:06;;;;;;;;;;;;;;;;;;5051106;28;20379;-67
2021/01/19 03:22:33;;;;;;;;;;;;;;;;;;5050170;28;19925;-67
2021/01/19 03:24:59;;;;;;;;;;;;;;;;;;5041609;28;19960;-67
2021/01/19 03:27:25;;;;;;;;;;;;;;;;;;5046208;28;20376;-67
2021/01/19 03:29:52;;;;;;;;;;;;;;;;;;5049788;28;20404;-68
2021/01/19 03:32:18;;;;;;;;;;;;;;;;;;5044597;28;19935;-67
2021/01/19 03:34:45;;;;;;;;;;;;;;;;;;5052323;28;19940;-68
2021/01/19 03:37:11;;;;;;;;;;;;;;;;;;5037324;28;20036;-67
2021/01/19 03:39:38;;;;;;;;;;;;;;;;;;5047122;28;20033;-67
2021/01/19 03:42:04;;;;;;;;;;;;;;;;;;5046178;28;19925;-66
2021/01/19 03:44:31;;;;;;;;;;;;;;;;;;5050431;28;19924;-66
2021/01/19 03:46:57;;;;;;;;;;;;;;;;;;5051281;28;19950;-65
2021/01/19 03:49:24;;;;;;;;;;;;;;;;;;5045276;28;19931;-67
2021/01/19 03:51:50;;;;;;;;;;;;;;;;;;5051848;28;19947;-66
2021/01/19 03:54:17;;;;;;;;;;;;;;;;;;5047120;28;20397;-67
2021/01/19 03:56:43;;;;;;;;;;;;;;;;;;5052122;28;19925;-67
2021/01/19 03:59:10;;;;;;;;;;;;;;;;;;5049165;28;20396;-67
2021/01/19 04:01:36;;;;;;;;;;;;;;;;;;5035272;28;20024;-67
2021/01/19 04:04:03;;;;;;;;;;;;;;;;;;5041608;28;19925;-66
2021/01/19 04:06:29;;;;;;;;;;;;;;;;;;5033482;28;19925;-67
2021/01/19 04:08:56;;;;;;;;;;;;;;;;;;5051820;28;19975;-67
2021/01/19 04:11:22;;;;;;;;;;;;;;;;;;5051981;28;20277;-67
2021/01/19 04:13:49;;;;;;;;;;;;;;;;;;5051541;28;20400;-67
2021/01/19 04:16:15;;;;;;;;;;;;;;;;;;5052102;28;19925;-67
2021/01/19 04:18:42;;;;;;;;;;;;;;;;;;5043627;28;19926;-67
2021/01/19 04:21:08;;;;;;;;;;;;;;;;;;5036354;28;19948;-68
2021/01/19 04:23:35;;;;;;;;;;;;;;;;;;5040706;28;19925;-67
2021/01/19 04:26:01;;;;;;;;;;;;;;;;;;5055307;28;19925;-68
2021/01/19 04:28:28;;;;;;;;;;;;;;;;;;5044147;28;20012;-66
2021/01/19 04:30:54;;;;;;;;;;;;;;;;;;5050119;28;20031;-67
2021/01/19 04:33:21;;;;;;;;;;;;;;;;;;5054402;28;19924;-68
2021/01/19 04:35:47;;;;;;;;;;;;;;;;;;5051026;28;20015;-67
2021/01/19 04:38:14;;;;;;;;;;;;;;;;;;5043145;28;20389;-66
2021/01/19 04:40:40;;;;;;;;;;;;;;;;;;5051609;28;19978;-67
2021/01/19 04:43:07;;;;;;;;;;;;;;;;;;5050101;28;19954;-68
2021/01/19 04:45:33;;;;;;;;;;;;;;;;;;5054981;28;20308;-67
2021/01/19 04:48:00;;;;;;;;;;;;;;;;;;5050912;28;19931;-67
2021/01/19 04:50:26;;;;;;;;;;;;;;;;;;5046213;28;20021;-66
2021/01/19 04:52:53;;;;;;;;;;;;;;;;;;5045503;28;20312;-67
2021/01/19 04:55:19;;;;;;;;;;;;;;;;;;5046744;28;19925;-67
2021/01/19 04:57:46;;;;;;;;;;;;;;;;;;5051871;28;19931;-67
2021/01/19 05:00:13;;;;;;;;;;;;;;;;;;5054164;28;19925;-67
2021/01/19 05:02:40;;;;;;;;;;;;;;;;;;5054308;28;19924;-67
2021/01/19 05:05:06;;;;;;;;;;;;;;;;;;5054495;28;19939;-67
2021/01/19 05:07:33;;;;;;;;;;;;;;;;;;5054243;28;19925;-67
2021/01/19 05:10:00;;;;;;;;;;;;;;;;;;5049225;28;20007;-67
2021/01/19 05:12:26;;;;;;;;;;;;;;;;;;5048957;28;19925;-67
2021/01/19 05:14:53;;;;;;;;;;;;;;;;;;5054379;28;19925;-67
2021/01/19 05:17:19;;;;;;;;;;;;;;;;;;5048600;28;19932;-67
2021/01/19 05:19:46;;;;;;;;;;;;;;;;;;5054418;28;20316;-67
2021/01/19 05:22:12;;;;;;;;;;;;;;;;;;5054052;28;19924;-67
2021/01/19 05:24:39;;;;;;;;;;;;;;;;;;5053837;28;20388;-67
2021/01/19 05:27:05;;;;;;;;;;;;;;;;;;5054144;28;19931;-67
2021/01/19 05:29:32;;;;;;;;;;;;;;;;;;5045106;28;19925;-67
2021/01/19 05:31:58;;;;;;;;;;;;;;;;;;5052656;28;19947;-65
2021/01/19 05:34:25;;;;;;;;;;;;;;;;;;5048149;28;19924;-67
2021/01/19 05:36:51;;;;;;;;;;;;;;;;;;5043613;28;19925;-68
2021/01/19 05:39:18;;;;;;;;;;;;;;;;;;5048334;28;19932;-67
2021/01/19 05:41:44;;;;;;;;;;;;;;;;;;5049672;28;19929;-68
2021/01/19 05:44:11;;;;;;;;;;;;;;;;;;5043454;28;20252;-67
2021/01/19 05:46:37;;;;;;;;;;;;;;;;;;5053681;28;19924;-67
2021/01/19 05:49:04;;;;;;;;;;;;;;;;;;5044309;28;19931;-68
2021/01/19 05:51:30;;;;;;;;;;;;;;;;;;5047967;28;19929;-67
2021/01/19 05:53:57;;;;;;;;;;;;;;;;;;5043888;28;20023;-67
2021/01/19 05:56:23;;;;;;;;;;;;;;;;;;5050949;28;19925;-67
2021/01/19 05:58:50;;;;;;;;;;;;;;;;;;5041871;28;20377;-68
2021/01/19 06:01:16;;;;;;;;;;;;;;;;;;5039213;28;19977;-68
2021/01/19 06:03:43;;;;;;;;;;;;;;;;;;5049545;28;19925;-68
2021/01/19 06:06:09;;;;;;;;;;;;;;;;;;5050742;28;19926;-68
2021/01/19 06:08:36;;;;;;;;;;;;;;;;;;5043543;28;19932;-67
2021/01/19 06:11:02;;;;;;;;;;;;;;;;;;5044037;28;19925;-67
2021/01/19 06:13:28;;;;;;;;;;;;;;;;;;5041974;28;19926;-67
2021/01/19 06:15:55;;;;;;;;;;;;;;;;;;5052169;28;19947;-68
2021/01/19 06:18:21;;;;;;;;;;;;;;;;;;5048015;28;19928;-68
2021/01/19 06:20:48;;;;;;;;;;;;;;;;;;5052774;28;19928;-68
2021/01/19 06:23:14;;;;;;;;;;;;;;;;;;5043993;28;19932;-66
2021/01/19 06:25:44;;;;;;;;;;;;;;;;;;5044587;28;19925;-67
2021/01/19 06:28:10;;;;;;;;;;;;;;;;;;5051706;28;20419;-67
2021/01/19 06:30:37;;;;;;;;;;;;;;;;;;5049260;28;19925;-66
2021/01/19 06:33:03;;;;;;;;;;;;;;;;;;5053109;28;20464;-67
2021/01/19 06:35:30;;;;;;;;;;;;;;;;;;5052741;28;19924;-71
2021/01/19 06:37:56;;;;;;;;;;;;;;;;;;5052460;28;19925;-67
2021/01/19 06:40:23;;;;;;;;;;;;;;;;;;5053316;28;19924;-65
2021/01/19 06:42:50;;;;;;;;;;;;;;;;;;5052388;28;19925;-66
2021/01/19 06:45:17;;;;;;;;;;;;;;;;;;5039720;28;19947;-67
2021/01/19 06:47:43;;;;;;;;;;;;;;;;;;5046584;28;19932;-66
2021/01/19 06:50:10;;;;;;;;;;;;;;;;;;5046123;28;20388;-66
2021/01/19 06:52:36;;;;;;;;;;;;;;;;;;5044664;28;20031;-66
2021/01/19 06:55:03;;;;;;;;;;;;;;;;;;5045252;28;19931;-67
2021/01/19 06:57:29;;;;;;;;;;;;;;;;;;5050980;28;19932;-66
2021/01/19 06:59:56;;;;;;;;;;;;;;;;;;5046242;28;19933;-66
2021/01/19 07:02:22;;;;;;;;;;;;;;;;;;5038446;28;19925;-67
2021/01/19 07:04:48;;;;;;;;;;;;;;;;;;5050852;28;20115;-66
2021/01/19 07:07:17;;;;;;;;;;;;;;;;;;5052581;28;19929;-67
2021/01/19 07:09:44;;;;;;;;;;;;;;;;;;5044504;28;19982;-66
2021/01/19 07:12:10;;;;;;;;;;;;;;;;;;5044849;28;19925;-66
2021/01/19 07:14:37;;;;;;;;;;;;;;;;;;5039285;28;20381;-66
2021/01/19 07:17:03;;;;;;;;;;;;;;;;;;5053060;28;20100;-66
2021/01/19 07:19:30;;;;;;;;;;;;;;;;;;5052997;28;19925;-67
2021/01/19 07:21:56;;;;;;;;;;;;;;;;;;5050536;28;20293;-66
2021/01/19 07:24:23;;;;;;;;;;;;;;;;;;5051988;28;19925;-66
2021/01/19 07:26:49;;;;;;;;;;;;;;;;;;5052542;28;19925;-66
2021/01/19 07:29:16;;;;;;;;;;;;;;;;;;5052096;28;19925;-66
2021/01/19 07:31:42;;;;;;;;;;;;;;;;;;5048877;28;20397;-66
2021/01/19 07:34:09;;;;;;;;;;;;;;;;;;5041631;28;19932;-66
2021/01/19 07:36:35;;;;;;;;;;;;;;;;;;5032138;28;20015;-66
2021/01/19 07:39:01;;;;;;;;;;;;;;;;;;5037160;28;19925;-66
2021/01/19 07:41:28;;;;;;;;;;;;;;;;;;5052357;28;19928;-66
2021/01/19 07:43:54;;;;;;;;;;;;;;;;;;5052595;28;20291;-65
2021/01/19 07:46:21;;;;;;;;;;;;;;;;;;5052394;28;19924;-67
2021/01/19 07:48:47;;;;;;;;;;;;;;;;;;5052100;28;19936;-67
2021/01/19 07:51:14;;;;;;;;;;;;;;;;;;5052259;28;19925;-65
2021/01/19 07:53:40;;;;;;;;;;;;;;;;;;5045215;28;19925;-67
2021/01/19 07:56:07;;;;;;;;;;;;;;;;;;5046679;28;19929;-67
2021/01/19 07:58:33;;;;;;;;;;;;;;;;;;5055184;28;19960;-67
2021/01/19 08:01:00;;;;;;;;;;;;;;;;;;5043421;28;19932;-67
2021/01/19 08:03:26;;;;;;;;;;;;;;;;;;5038164;28;19929;-67
2021/01/19 08:05:53;;;;;;;;;;;;;;;;;;5055657;28;20057;-67
2021/01/19 08:08:19;;;;;;;;;;;;;;;;;;5055901;28;19986;-68
2021/01/19 08:10:46;;;;;;;;;;;;;;;;;;5046961;28;20429;-66
2021/01/19 08:13:12;;;;;;;;;;;;;;;;;;5048925;28;19929;-67
2021/01/19 08:15:40;;;;;;;;;;;;;;;;;;5048943;28;19924;-68
2021/01/19 08:18:07;;;;;;;;;;;;;;;;;;5048896;28;20594;-68
2021/01/19 08:20:33;;;;;;;;;;;;;;;;;;5050436;28;20019;-68
2021/01/19 08:23:00;;;;;;;;;;;;;;;;;;5046487;28;19931;-68
2021/01/19 08:25:26;;;;;;;;;;;;;;;;;;5051563;28;20023;-68
2021/01/19 08:27:53;;;;;;;;;;;;;;;;;;5045853;28;19925;-68
2021/01/19 08:30:25;;;;;;;;;;;;;;;;;;5042426;28;19939;-68
2021/01/19 08:32:52;;;;;;;;;;;;;;;;;;5042889;28;20014;-68
2021/01/19 08:35:18;;;;;;;;;;;;;;;;;;5038517;28;19975;-68
2021/01/19 08:37:45;;;;;;;;;;;;;;;;;;5045632;28;19970;-69
2021/01/19 08:40:11;;;;;;;;;;;;;;;;;;5041675;28;20415;-68
2021/01/19 08:42:38;;;;;;;;;;;;;;;;;;5042014;28;19933;-68
2021/01/19 08:45:04;;;;;;;;;;;;;;;;;;5045970;28;20343;-68
2021/01/19 08:47:31;;;;;;;;;;;;;;;;;;5044214;28;19925;-68
2021/01/19 08:49:58;;;;;;;;;;;5.70;99.90;;;;;;5047066;28;20398;-68
2021/01/19 08:52:26;;;;;;;;;;;5.90;99.90;;;;;;5045683;28;19925;-67
2021/01/19 08:54:52;;;;;;;;;;;5.90;99.90;;;;;;5036947;28;20012;-68
2021/01/19 08:57:19;;;;;;;;;;;5.80;99.90;;;;;;5050685;28;19925;-68
2021/01/19 08:59:51;;;;;;;;;;;5.80;99.90;;;;;;5045147;28;20019;-68
2021/01/19 09:02:18;;;;;;;;;;;5.80;99.90;;;;;;5047090;28;19928;-69
2021/01/19 09:04:44;;;;;;;;;;;5.90;99.90;;;;;;5044960;28;20630;-68
2021/01/19 09:07:11;;;;;;;;;;;6.10;99.90;;;;;;5048559;28;19929;-69
2021/01/19 09:09:38;;;;;;;;;;;6.20;99.90;;;;;;5036835;28;20401;-69
2021/01/19 09:12:15;;;;;;;;;;;6.30;99.90;;;;;;5041444;28;19944;-68
2021/01/19 09:14:41;;;;;;;;;;;6.30;99.90;;;;;;5039703;28;19931;-68
2021/01/19 09:17:07;;;;;;;;;;;6.40;99.90;;;;;;5048665;28;20319;-68
2021/01/19 09:19:33;;;;;;;;;;;6.40;99.90;;;;;;5044335;28;19925;-68
2021/01/19 09:22:00;;;;;;;;;;;6.40;99.90;;;;;;5049805;28;19924;-69
2021/01/19 09:24:27;;;;;;;;;;;6.40;99.90;;;;;;5042848;28;19932;-69
2021/01/19 09:26:58;;;;;;;;;;;6.50;99.90;;;;;;5042214;28;19925;-69
2021/01/19 09:29:24;;;;;;;;;;;6.50;99.90;;;;;;5047176;28;19947;-68
2021/01/19 09:31:50;;;;;;;;;;;6.50;99.90;;;;;;5044482;28;20051;-68
2021/01/19 09:34:18;;;;;;;;;;;6.40;99.90;;;;;;5039885;28;20405;-68
2021/01/19 09:36:45;;;;;;;;;;;6.50;99.90;;;;;;5040058;28;20448;-67
2021/01/19 09:39:11;;;;;;;;;;;6.60;99.90;;;;;;5048981;28;19939;-68
2021/01/19 09:41:42;;;;;;;;;;;6.60;99.90;;;;;;5045084;28;20012;-69
2021/01/19 09:44:08;;;;;;;;;;;6.70;99.90;;;;;;5045078;28;19929;-70
2021/01/19 09:46:34;;;;;;;;;;;6.70;99.90;;;;;;5043784;28;20020;-69
2021/01/19 09:49:01;;;;;;;;;;;6.80;99.90;;;;;;5046751;28;19931;-69
2021/01/19 09:51:27;;;;;;;;;;;6.80;99.90;;;;;;5047571;28;19936;-68
2021/01/19 09:53:54;;;;;;;;;;;6.80;99.90;;;;;;5035588;28;20351;-69
2021/01/19 09:56:21;;;;;;;;;;;6.80;99.90;;;;;;5037822;28;19925;-69
2021/01/19 09:58:47;;;;;;;;;;;;;;;;;;5042439;28;19932;-70
2021/01/19 10:01:14;;;;;;;;;;;;;;;;;;5048755;28;19954;-70
2021/01/19 10:03:40;;;;;;;;;;;;;;;;;;5042424;28;19925;-67
2021/01/19 10:06:07;;;;;;;;;;;;;;;;;;5039581;28;19935;-69
2021/01/19 10:08:33;;;;;;;;;;;;;;;;;;5042470;28;19964;-69
2021/01/19 10:11:00;;;;;;;;;;;;;;;;;;5046035;28;19931;-69
2021/01/19 10:13:26;;;;;;;;;;;;;;;;;;5038717;28;20030;-69
2021/01/19 10:15:53;;;;;;;;;;;;;;;;;;5043750;28;19936;-69
2021/01/19 10:18:19;;;;;;;;;;;;;;;;;;5050811;28;19925;-69
2021/01/19 10:20:46;;;;;;;;;;;;;;;;;;5040032;28;19925;-68
2021/01/19 10:23:12;;;;;;;;;;;;;;;;;;5039827;28;19946;-69
2021/01/19 10:25:39;;;;;;;;;;;;;;;;;;5041913;28;19925;-67
2021/01/19 10:28:05;;;;;;;;;;;;;;;;;;5048141;28;19939;-66
2021/01/19 10:30:32;;;;;;;;;;;;;;;;;;5040545;28;20313;-66
2021/01/19 10:32:58;;;;;;;;;;;;;;;;;;5036615;28;19925;-66
2021/01/19 10:35:25;;;;;;;;;;;;;;;;;;5039733;28;19931;-67
2021/01/19 10:37:53;;;;;;;;;;;;;;;;;;5037732;28;19925;-66
2021/01/19 10:40:19;;;;;;;;;;;;;;;;;;5041294;28;20516;-66
2021/01/19 10:42:46;;;;;;;;;;;;;;;;;;5041145;28;19932;-70
2021/01/19 10:45:12;;;;;;;;;;;;;;;;;;5040876;28;19937;-69
2021/01/19 10:47:39;;;;;;;;;;;;;;;;;;5041770;28;19925;-70
2021/01/19 10:50:05;;;;;;;;;;;;;;;;;;5048538;28;19972;-71
2021/01/19 10:52:33;;;;;;;;;;;;;;;;;;5040942;28;22058;-71
2021/01/19 10:55:00;;;;;;;;;;;;;;;;;;5045334;28;20087;-70
2021/01/19 10:57:26;;;;;;;;;;;;;;;;;;5052308;28;19971;-71
2021/01/19 10:59:52;;;;;;;;;;;;;;;;;;5042260;28;20007;-70
2021/01/19 11:02:19;;;;;;;;;;;;;;;;;;5045405;28;19935;-71
2021/01/19 11:04:45;;;;;;;;;;;;;;;;;;5043310;28;19925;-69
2021/01/19 11:07:12;;;;;;;;;;;;;;;;;;5046262;28;19968;-70
2021/01/19 11:09:38;;;;;;;;;;;;;;;;;;5039270;28;19925;-70
2021/01/19 11:12:05;;;;;;;;;;;;;;;;;;5044130;28;20011;-70
2021/01/19 11:14:31;;;;;;;;;;;;;;;;;;5046593;28;20389;-70
2021/01/19 11:16:58;;;;;;;;;;;;;;;;;;5041899;28;19940;-69
2021/01/19 11:19:24;;;;;;;;;;;;;;;;;;5050753;28;19947;-69
2021/01/19 11:21:51;;;;;;;;;;;;;;;;;;5046973;28;19928;-71
2021/01/19 11:24:17;;;;;;;;;;;;;;;;;;5047330;28;19932;-71
2021/01/19 11:26:44;;;;;;;;;;;;;;;;;;5047382;28;20066;-70
2021/01/19 11:29:10;;;;;;;;;;;;;;;;;;5041816;28;20202;-70
2021/01/19 11:31:37;;;;;;;;;;;;;;;;;;5048504;28;19928;-71
2021/01/19 11:34:05;;;;;;;;;;;;;;;;;;5042796;28;19932;-71
2021/01/19 11:36:33;;;;;;;;;;;;;;;;;;5043443;28;19940;-70
2021/01/19 11:38:59;;;;;;;;;;;;;;;;;;5047478;28;20000;-70
2021/01/19 11:41:26;;;;;;;;;;;;;;;;;;5044026;28;19970;-70
2021/01/19 11:43:52;;;;;;;;;;;;;;;;;;5041214;28;19929;-68
2021/01/19 11:46:18;;;;;;;;;;;;;;;;;;5039848;28;19929;-70
2021/01/19 11:48:45;;;;;;;;;;;;;;;;;;5045446;28;20036;-71
2021/01/19 11:51:12;;;;;;;;;;;;;;;;;;5041221;28;19932;-71
2021/01/19 11:53:38;;;;;;;;;;;;;;;;;;5040510;28;19925;-69
2021/01/19 11:56:04;;;;;;;;;;;;;;;;;;5042860;28;19932;-70
2021/01/19 11:58:31;;;;;;;;;;;;;;;;;;5046867;28;19935;-71
2021/01/19 12:00:58;;;;;;;;;;;;;;;;;;5049254;28;20025;-69
2021/01/19 12:03:24;;;;;;;;;;;;;;;;;;5038879;28;19925;-70
2021/01/19 12:05:51;;;;;;;;;;;;;;;;;;5042536;28;20350;-71
2021/01/19 12:08:17;;;;;;;;;;;;;;;;;;5035259;28;20012;-70
2021/01/19 12:10:44;;;;;;;;;;;;;;;;;;5043568;28;19932;-71
2021/01/19 12:13:12;;;;;;;;;;;;;;;;;;5037590;28;19925;-71
2021/01/19 12:15:38;;;;;;;;;;;;;;;;;;5042380;28;19931;-71
2021/01/19 12:18:05;;;;;;;;;;;;;;;;;;5049798;28;19924;-70
2021/01/19 12:20:31;;;;;;;;;;;;;;;;;;5038004;28;20022;-72
2021/01/19 12:22:58;;;;;;;;;;;;;;;;;;5039028;28;19943;-70
2021/01/19 12:25:25;;;;;;;;;;;;;;;;;;5048579;28;19925;-70
2021/01/19 12:27:51;;;;;;;;;;;;;;;;;;5040400;28;19932;-69
2021/01/19 12:30:17;;;;;;;;;;;;;;;;;;5037361;28;20377;-71
2021/01/19 12:35:14;;;;;;;;;;;;;;;;;;5087476;28;19924;-68
2021/01/19 12:37:41;;;;;;;;;;;;;;;;;;5092048;28;20409;-70
2021/01/19 12:40:07;;;;;;;;;;;;;;;;;;5093345;28;20015;-69
2021/01/19 12:42:34;;;;;;;;;;;;;;;;;;5090862;28;19991;-68
2021/01/19 12:45:00;;;;;;;;;;;;;;;;;;5082981;28;19983;-68
2021/01/19 12:47:27;;;;;;;;;;;;;;;;;;5078372;28;20121;-69
2021/01/19 12:49:54;;;;;;;;;;;8.20;99.90;;;;;;5088095;28;20019;-68
2021/01/19 12:52:20;;;;;;;;;;;8.20;99.90;;;;;;5085689;28;19958;-68
2021/01/19 12:54:46;;;;;;;;;;;8.20;99.90;;;;;;5088850;28;19930;-68
2021/01/19 12:57:13;;;;;;;;;;;8.20;99.90;;;;;;5091190;28;20356;-68
2021/01/19 12:59:39;;;;;;;;;;;8.20;99.90;;;;;;5087942;28;20549;-67
2021/01/19 13:02:05;;;;;;;;;;;8.20;99.90;;;;;;5091621;28;20038;-68
2021/01/19 13:04:32;;;;;;;;;;;8.20;99.90;;;;;;5085438;28;19953;-69
2021/01/19 13:06:59;;;;;;;;;;;8.30;99.90;;;;;;5092164;28;19976;-69
2021/01/19 13:09:25;;;;;;;;;;;8.30;99.90;;;;;;5087625;28;19928;-69
2021/01/19 13:11:51;;;;;;;;;;;8.40;99.90;;;;;;5086706;28;20010;-68
2021/01/19 13:14:17;;;;;;;;;;;8.40;99.90;;;;;;5087505;28;19924;-67
2021/01/19 13:16:43;;;;;;;;;;;8.40;99.90;;;;;;5086539;28;20018;-69
2021/01/19 13:19:09;;;;;;;;;;;8.40;99.90;;;;;;5085897;28;20214;-68
2021/01/19 13:21:36;;;;;;;;;;;8.40;99.90;;;;;;5088992;28;19974;-68
2021/01/19 13:24:03;;;;;;;;;;;8.50;99.90;;;;;;5086851;28;20207;-71
2021/01/19 13:26:29;;;;;;;;;;;8.40;99.90;;;;;;5081708;28;19972;-67
2021/01/19 13:28:55;;;;;;;;;;;8.50;99.90;;;;;;5084335;28;19938;-68
2021/01/19 13:31:21;;;;;;;;;;;8.50;99.90;;;;;;5078826;28;19924;-69
2021/01/19 13:33:50;;;;;;;;;;;8.50;99.90;;;;;;5081971;28;19970;-69
2021/01/19 13:36:16;;;;;;;;;;;8.50;99.90;;;;;;5087208;28;19934;-69
2021/01/19 13:38:43;;;;;;;;;;;8.60;99.90;;;;;;5085058;28;20034;-69
2021/01/19 13:41:13;;;;;;;;;;;8.60;99.90;;;;;;5079450;28;19967;-69
2021/01/19 13:43:40;;;;;;;;;;;8.60;99.90;;;;;;5084013;28;20410;-69
2021/01/19 13:46:07;;;;;;;;;;;8.60;99.90;;;;;;5081134;28;20436;-69
2021/01/19 13:48:33;;;;;;;;;;;8.60;99.90;;;;;;5085479;28;20299;-68
2021/01/19 13:50:59;;;;;;;;;;;8.60;99.90;;;;;;5089026;28;20466;-68
2021/01/19 13:53:25;;;;;;;;;;;8.60;99.90;;;;;;5087214;28;19967;-68
2021/01/19 13:55:52;;;;;;;;;;;8.60;99.90;;;;;;5088061;28;19979;-69
2021/01/19 13:58:19;;;;;;;;;;;8.60;99.90;;;;;;5083619;28;20510;-69
2021/01/19 14:00:45;;;;;;;;;;;8.70;99.90;;;;;;5090872;28;19924;-68
2021/01/19 14:03:12;;;;;;;;;;;8.70;99.90;;;;;;5084061;28;20011;-69
2021/01/19 14:05:38;;;;;;;;;;;8.70;99.90;;;;;;5090390;28;19970;-69
2021/01/19 14:08:06;;;;;;;;;;;8.70;99.90;;;;;;5085613;28;20094;-69
2021/01/19 14:10:32;;;;;;;;;;;8.70;99.90;;;;;;5083273;28;19947;-69
2021/01/19 14:12:59;;;;;;;;;;;8.70;99.90;;;;;;5086819;28;19938;-68
2021/01/19 14:15:26;;;;;;;;;;;8.60;99.90;;;;;;5083497;28;19931;-69
2021/01/19 14:17:52;;;;;;;;;;;8.60;99.90;;;;;;5083099;28;19987;-68
2021/01/19 14:20:18;;;;;;;;;;;8.50;99.90;;;;;;5086165;28;19928;-68
2021/01/19 14:22:44;;;;;;;;;;;8.50;99.90;;;;;;5086216;28;20027;-66
2021/01/19 14:25:11;;;;;;;;;;;8.50;99.90;;;;;;5080013;28;20306;-69
2021/01/19 14:27:37;;;;;;;;;;;8.40;99.90;;;;;;5090162;28;19992;-70
2021/01/19 14:30:03;;;;;;;;;;;8.40;99.90;;;;;;5086083;28;19924;-69
2021/01/19 14:32:30;;;;;;;;;;;8.40;99.90;;;;;;5076566;28;19932;-68
2021/01/19 14:34:57;;;;;;;;;;;8.30;99.90;;;;;;5079065;28;19932;-68
2021/01/19 14:37:23;;;;;;;;;;;8.30;99.90;;;;;;5086791;28;19924;-69
2021/01/19 14:39:49;;;;;;;;;;;8.30;99.90;;;;;;5085142;28;19928;-69
2021/01/19 14:42:18;;;;;;;;;;;8.30;99.90;;;;;;5089040;28;19931;-68
2021/01/19 14:44:44;;;;;;;;;;;8.30;99.90;;;;;;5081820;28;20269;-69
2021/01/19 14:47:10;;;;;;;;;;;8.30;99.90;;;;;;5087416;28;20296;-69
2021/01/19 14:49:37;;;;;;;;;;;8.30;99.90;;;;;;5085873;28;19925;-67
2021/01/19 14:52:03;;;;;;;;;;;8.30;99.90;;;;;;5083285;28;19924;-70
2021/01/19 14:54:30;;;;;;;;;;;8.20;99.90;;;;;;5081567;28;19924;-68
2021/01/19 14:56:56;;;;;;;;;;;8.20;99.90;;;;;;5088090;28;19969;-68
2021/01/19 14:59:23;;;;;;;;;;;8.20;99.90;;;;;;5083255;28;20026;-67
2021/01/19 15:01:49;;;;;;;;;;;8.10;99.90;;;;;;5084724;28;20392;-68
2021/01/19 15:04:18;;;;;;;;;;;8.10;99.90;;;;;;5080522;28;20294;-70
2021/01/19 15:06:49;;;;;;;;;;;8.00;99.90;;;;;;5081239;28;19939;-69
2021/01/19 15:09:15;;;;;;;;;;;8.00;99.90;;;;;;5082177;28;19960;-69
2021/01/19 15:11:41;;;;;;;;;;;8.00;99.90;;;;;;5083068;28;19930;-68
2021/01/19 15:14:08;;;;;;;;;;;8.00;99.90;;;;;;5079786;28;20022;-70
2021/01/19 15:16:40;;;;;;;;;;;8.00;99.90;;;;;;5081649;28;20019;-69
2021/01/19 15:19:07;;;;;;;;;;;8.00;99.90;;;;;;5078658;28;19924;-68
2021/01/19 15:21:33;;;;;;;;;;;8.00;99.90;;;;;;5077819;28;19928;-68
2021/01/19 15:24:01;;;;;;;;;;;7.90;99.90;;;;;;5084810;28;20369;-68
2021/01/19 15:26:27;;;;;;;;;;;7.90;99.90;;;;;;5082896;28;20015;-69
2021/01/19 15:28:53;;;;;;;;;;;7.90;99.90;;;;;;5084662;28;20057;-69
2021/01/19 15:31:19;;;;;;;;;;;7.90;99.90;;;;;;5081739;28;19986;-69
2021/01/19 15:33:45;;;;;;;;;;;7.90;99.90;;;;;;5075268;28;20526;-69
2021/01/19 15:36:18;;;;;;;;;;;7.90;99.90;;;;;;5086355;28;19928;-68
2021/01/19 15:38:45;;;;;;;;;;;7.90;99.90;;;;;;5083505;28;19924;-69
2021/01/19 15:41:15;;;;;;;;;;;7.90;99.90;;;;;;5086410;28;19932;-66
2021/01/19 15:43:42;;;;;;;;;;;7.90;99.90;;;;;;5080135;28;20351;-68
2021/01/19 15:46:08;;;;;;;;;;;7.90;99.90;;;;;;5075420;28;20342;-68
2021/01/19 15:48:34;;;;;;;;;;;7.90;99.90;;;;;;5084798;28;20348;-69
2021/01/19 15:51:00;;;;;;;;;;;7.90;99.90;;;;;;5086336;28;19995;-68
2021/01/19 15:53:27;;;;;;;;;;;7.90;99.90;;;;;;5079790;28;19928;-69
2021/01/19 15:55:53;;;;;;;;;;;7.90;99.90;;;;;;5081623;28;20415;-69
2021/01/19 15:58:20;;;;;;;;;;;7.90;99.90;;;;;;5078967;28;19978;-69
2021/01/19 16:00:46;;;;;;;;;;;7.90;99.90;;;;;;5081305;28;20011;-68
2021/01/19 16:03:13;;;;;;;;;;;7.90;99.90;;;;;;5084890;28;20403;-69